createdAt,value
2022-11-15T00:01:53.833Z,100.00
2022-11-15T00:04:23.709Z,100.00
2022-11-15T00:06:53.634Z,100.00
2022-11-15T00:09:23.599Z,100.00
2022-11-15T00:11:53.212Z,100.00
2022-11-15T00:14:20.393Z,100.00
2022-11-15T00:16:48.725Z,100.00
2022-11-15T00:19:17.286Z,100.00
2022-11-15T00:21:45.586Z,100.00
2022-11-15T00:24:14.002Z,100.00
2022-11-15T00:26:42.383Z,100.00
2022-11-15T00:29:10.876Z,100.00
2022-11-15T00:31:39.202Z,100.00
2022-11-15T00:34:07.704Z,100.00
2022-11-15T00:36:36.243Z,100.00
2022-11-15T00:39:06.857Z,100.00
2022-11-15T00:41:35.871Z,100.00
2022-11-15T00:44:04.568Z,100.00
2022-11-15T00:46:32.788Z,100.00
2022-11-15T00:49:01.255Z,100.00
2022-11-15T00:51:29.648Z,100.00
2022-11-15T00:53:58.022Z,100.00
2022-11-15T00:56:26.435Z,100.00
2022-11-15T00:58:55.168Z,100.00
2022-11-15T01:01:23.217Z,100.00
2022-11-15T01:03:51.701Z,100.00
2022-11-15T01:06:20.025Z,100.00
2022-11-15T01:08:48.402Z,100.00
2022-11-15T01:11:17.249Z,100.00
2022-11-15T01:13:45.229Z,100.00
2022-11-15T01:16:19.447Z,100.00
2022-11-15T01:18:49.393Z,100.00
2022-11-15T01:21:20.500Z,100.00
2022-11-15T01:23:55.636Z,100.00
2022-11-15T01:26:27.274Z,100.00
2022-11-15T01:28:57.236Z,100.00
2022-11-15T01:31:27.098Z,100.00
2022-11-15T01:33:57.006Z,100.00
2022-11-15T01:36:26.976Z,100.00
2022-11-15T01:39:00.819Z,100.00
2022-11-15T01:41:34.415Z,100.00
2022-11-15T01:44:52.586Z,100.00
2022-11-15T01:47:36.309Z,100.00
2022-11-15T01:50:19.627Z,100.00
2022-11-15T01:52:49.717Z,100.00
2022-11-15T01:55:26.163Z,100.00
2022-11-15T01:58:03.088Z,100.00
2022-11-15T02:00:33.047Z,100.00
2022-11-15T02:03:04.273Z,100.00
2022-11-15T02:05:36.176Z,100.00
2022-11-15T02:08:07.704Z,100.00
2022-11-15T02:10:36.958Z,100.00
2022-11-15T02:13:05.413Z,100.00
2022-11-15T02:15:59.052Z,100.00
2022-11-15T02:18:45.558Z,100.00
2022-11-15T02:21:33.900Z,100.00
2022-11-15T02:24:45.511Z,100.00
2022-11-15T02:27:35.363Z,100.00
2022-11-15T02:30:55.895Z,100.00
2022-11-15T02:33:50.052Z,100.00
2022-11-15T02:37:12.032Z,100.00
2022-11-15T02:40:16.017Z,100.00
2022-11-15T02:43:14.053Z,100.00
2022-11-15T02:45:54.948Z,100.00
2022-11-15T02:48:27.347Z,100.00
2022-11-15T02:50:58.594Z,100.00
2022-11-15T02:53:28.759Z,100.00
2022-11-15T02:55:59.367Z,100.00
2022-11-15T02:58:53.649Z,100.00
2022-11-15T03:02:07.312Z,100.00
2022-11-15T03:04:54.132Z,100.00
2022-11-15T03:07:37.916Z,100.00
2022-11-15T03:10:21.927Z,100.00
2022-11-15T03:13:02.092Z,100.00
2022-11-15T03:15:47.619Z,100.00
2022-11-15T03:18:29.263Z,100.00
2022-11-15T03:21:05.263Z,100.00
2022-11-15T03:23:39.043Z,100.00
2022-11-15T03:26:14.621Z,100.00
2022-11-15T03:28:56.389Z,100.00
2022-11-15T03:31:50.373Z,100.00
2022-11-15T03:34:35.761Z,100.00
2022-11-15T03:37:05.977Z,100.00
2022-11-15T03:39:35.913Z,100.00
2022-11-15T03:42:18.400Z,100.00
2022-11-15T03:45:17.340Z,100.00
2022-11-15T03:47:56.709Z,100.00
2022-11-15T03:50:27.117Z,100.00
2022-11-15T03:52:58.134Z,100.00
2022-11-15T03:55:25.942Z,100.00
2022-11-15T03:57:59.616Z,100.00
2022-11-15T04:00:30.153Z,100.00
2022-11-15T04:03:00.121Z,100.00
2022-11-15T04:05:29.981Z,100.00
2022-11-15T04:07:59.765Z,100.00
2022-11-15T04:10:29.600Z,100.00
2022-11-15T04:12:59.450Z,100.00
2022-11-15T04:15:32.663Z,100.00
2022-11-15T04:18:02.754Z,100.00
2022-11-15T04:20:52.267Z,100.00
2022-11-15T04:23:41.580Z,100.00
2022-11-15T04:26:17.188Z,100.00
2022-11-15T04:29:05.683Z,100.00
2022-11-15T04:31:35.723Z,100.00
2022-11-15T04:34:05.480Z,100.00
2022-11-15T04:36:53.994Z,100.00
2022-11-15T04:39:23.880Z,100.00
2022-11-15T04:41:53.793Z,100.00
2022-11-15T04:44:23.718Z,100.00
2022-11-15T04:46:54.301Z,100.00
2022-11-15T04:49:24.081Z,100.00
2022-11-15T04:51:54.332Z,100.00
2022-11-15T04:54:24.320Z,100.00
2022-11-15T04:56:55.713Z,100.00
2022-11-15T04:59:25.885Z,100.00
2022-11-15T05:01:55.830Z,100.00
2022-11-15T05:04:25.907Z,100.00
2022-11-15T05:06:55.894Z,100.00
2022-11-15T05:09:25.948Z,100.00
2022-11-15T05:11:55.781Z,100.00
2022-11-15T05:14:25.671Z,100.00
2022-11-15T05:16:55.713Z,100.00
2022-11-15T05:19:25.669Z,100.00
2022-11-15T05:21:55.464Z,100.00
2022-11-15T05:24:24.220Z,100.00
2022-11-15T05:26:52.312Z,100.00
2022-11-15T05:29:20.981Z,100.00
2022-11-15T05:31:49.315Z,100.00
2022-11-15T05:34:19.101Z,100.00
2022-11-15T05:36:47.037Z,100.00
2022-11-15T05:39:14.697Z,100.00
2022-11-15T05:41:49.238Z,100.00
2022-11-15T05:44:23.486Z,100.00
2022-11-15T05:46:57.160Z,100.00
2022-11-15T05:49:35.536Z,100.00
2022-11-15T05:52:11.193Z,100.00
2022-11-15T05:54:42.336Z,100.00
2022-11-15T05:57:12.982Z,100.00
2022-11-15T05:59:44.862Z,100.00
2022-11-15T06:02:15.873Z,100.00
2022-11-15T06:04:46.924Z,100.00
2022-11-15T06:07:16.810Z,100.00
2022-11-15T06:09:46.742Z,100.00
2022-11-15T06:12:15.398Z,100.00
2022-11-15T06:14:43.571Z,100.00
2022-11-15T06:17:12.114Z,100.00
2022-11-15T06:19:40.542Z,100.00
2022-11-15T06:22:10.457Z,100.00
2022-11-15T06:24:37.466Z,100.00
2022-11-15T06:27:05.779Z,100.00
2022-11-15T06:29:36.012Z,100.00
2022-11-15T06:32:04.885Z,100.00
2022-11-15T06:34:32.436Z,100.00
2022-11-15T06:37:01.052Z,100.00
2022-11-15T06:39:31.066Z,100.00
2022-11-15T06:42:00.687Z,100.00
2022-11-15T06:44:28.030Z,100.00
2022-11-15T06:46:56.601Z,100.00
2022-11-15T06:49:24.994Z,100.00
2022-11-15T06:51:53.385Z,100.00
2022-11-15T06:54:22.423Z,100.00
2022-11-15T06:56:50.207Z,100.00
2022-11-15T06:59:18.978Z,100.00
2022-11-15T07:01:47.247Z,100.00
2022-11-15T07:04:15.745Z,100.00
2022-11-15T07:06:43.942Z,100.00
2022-11-15T07:09:12.747Z,100.00
2022-11-15T07:11:41.222Z,100.00
2022-11-15T07:14:09.609Z,100.00
2022-11-15T07:16:38.980Z,100.00
2022-11-15T07:19:06.566Z,100.00
2022-11-15T07:21:34.566Z,100.00
2022-11-15T07:24:03.126Z,100.00
2022-11-15T07:26:31.536Z,100.00
2022-11-15T07:29:00.071Z,100.00
2022-11-15T07:31:28.545Z,100.00
2022-11-15T07:33:57.513Z,100.00
2022-11-15T07:36:28.170Z,100.00
2022-11-15T07:38:56.652Z,100.00
2022-11-15T07:41:25.139Z,100.00
2022-11-15T07:43:53.715Z,100.00
2022-11-15T07:46:23.534Z,100.00
2022-11-15T07:48:53.554Z,100.00
2022-11-15T07:51:23.398Z,100.00
2022-11-15T07:53:50.846Z,100.00
2022-11-15T07:56:18.130Z,100.00
2022-11-15T07:58:48.216Z,100.00
2022-11-15T08:01:18.247Z,100.00
2022-11-15T08:03:48.240Z,100.00
2022-11-15T08:06:18.105Z,100.00
2022-11-15T08:08:49.075Z,100.00
2022-11-15T08:11:18.856Z,100.00
2022-11-15T08:13:48.766Z,100.00
2022-11-15T08:16:18.567Z,100.00
2022-11-15T08:18:47.712Z,100.00
2022-11-15T08:21:21.106Z,100.00
2022-11-15T08:23:50.852Z,100.00
2022-11-15T08:26:20.822Z,100.00
2022-11-15T08:28:50.582Z,100.00
2022-11-15T08:31:20.456Z,100.00
2022-11-15T08:33:50.338Z,100.00
2022-11-15T08:36:20.232Z,100.00
2022-11-15T08:38:50.116Z,100.00
2022-11-15T08:41:33.534Z,100.00
2022-11-15T08:44:01.502Z,100.00
2022-11-15T08:46:28.846Z,100.00
2022-11-15T08:48:59.126Z,100.00
2022-11-15T08:51:28.811Z,100.00
2022-11-15T08:53:58.961Z,100.00
2022-11-15T08:56:28.815Z,100.00
2022-11-15T08:58:58.568Z,100.00
2022-11-15T09:01:28.459Z,100.00
2022-11-15T09:03:58.289Z,100.00
2022-11-15T09:06:28.243Z,100.00
2022-11-15T09:08:58.728Z,100.00
2022-11-15T09:11:28.273Z,100.00
2022-11-15T09:13:58.094Z,100.00
2022-11-15T09:16:28.006Z,100.00
2022-11-15T09:18:58.028Z,100.00
2022-11-15T09:21:27.754Z,100.00
2022-11-15T09:23:58.745Z,100.00
2022-11-15T09:26:28.275Z,100.00
2022-11-15T09:28:58.010Z,100.00
2022-11-15T09:31:28.358Z,100.00
2022-11-15T09:33:58.553Z,100.00
2022-11-15T09:36:28.374Z,100.00
2022-11-15T09:38:59.516Z,100.00
2022-11-15T09:42:19.185Z,100.00
2022-11-15T09:45:14.441Z,98.85
2022-11-15T09:48:24.033Z,93.31
2022-11-15T09:50:59.747Z,92.62
2022-11-15T09:57:35.934Z,89.93
2022-11-15T10:00:44.687Z,91.39
2022-11-15T10:03:19.103Z,82.60
2022-11-15T10:05:53.058Z,81.29
2022-11-15T10:08:49.092Z,88.25
2022-11-15T10:11:40.701Z,86.30
2022-11-15T10:14:22.993Z,80.44
2022-11-15T10:17:31.503Z,74.03
2022-11-15T10:20:18.236Z,64.00
2022-11-15T10:22:54.862Z,61.94
2022-11-15T10:25:29.515Z,62.91
2022-11-15T10:28:28.863Z,61.15
2022-11-15T10:31:02.125Z,64.75
2022-11-15T10:33:41.077Z,60.36
2022-11-15T10:36:09.330Z,58.31
2022-11-15T10:38:58.569Z,66.54
2022-11-15T10:41:28.290Z,70.59
2022-11-15T10:44:21.103Z,69.05
2022-11-15T10:47:25.832Z,68.07
2022-11-15T10:50:33.120Z,63.59
2022-11-15T10:53:03.894Z,62.88
2022-11-15T10:55:36.173Z,62.57
2022-11-15T10:58:41.741Z,66.72
2022-11-15T11:01:46.999Z,72.96
2022-11-15T11:04:15.331Z,77.68
2022-11-15T11:06:50.535Z,80.24
2022-11-15T11:09:38.433Z,80.74
2022-11-15T11:12:18.123Z,82.88
2022-11-15T11:14:45.331Z,83.52
2022-11-15T11:17:36.623Z,85.31
2022-11-15T11:20:39.270Z,85.08
2022-11-15T11:23:47.679Z,85.46
2022-11-15T11:26:56.855Z,84.83
2022-11-15T11:30:41.179Z,84.74
2022-11-15T11:33:25.936Z,86.09
2022-11-15T11:35:58.508Z,86.46
2022-11-15T11:39:15.694Z,86.30
2022-11-15T11:42:20.814Z,84.88
2022-11-15T11:45:15.126Z,84.42
2022-11-15T11:48:03.843Z,85.44
2022-11-15T11:50:38.836Z,85.65
2022-11-15T11:53:30.374Z,85.83
2022-11-15T11:56:09.340Z,86.19
2022-11-15T11:58:45.807Z,85.05
2022-11-15T12:01:31.289Z,84.68
2022-11-15T12:04:10.874Z,84.41
2022-11-15T12:06:59.957Z,83.96
2022-11-15T12:09:54.695Z,84.03
2022-11-15T12:13:05.870Z,84.57
2022-11-15T12:15:49.231Z,82.99
2022-11-15T12:18:19.218Z,83.42
2022-11-15T12:21:05.840Z,84.26
2022-11-15T12:23:46.258Z,84.97
2022-11-15T12:26:27.980Z,84.41
2022-11-15T12:29:10.897Z,83.63
2022-11-15T12:31:45.140Z,83.49
2022-11-15T12:34:44.210Z,84.16
2022-11-15T12:37:47.299Z,83.40
2022-11-15T12:40:26.081Z,83.37
2022-11-15T12:43:09.677Z,84.13
2022-11-15T12:45:46.380Z,84.07
2022-11-15T12:48:17.674Z,83.44
2022-11-15T12:50:55.410Z,84.10
2022-11-15T12:53:29.460Z,83.80
2022-11-15T12:56:13.014Z,83.51
2022-11-15T12:59:09.302Z,83.42
2022-11-15T13:01:59.773Z,83.13
2022-11-15T13:04:30.091Z,82.32
2022-11-15T13:07:05.401Z,82.72
2022-11-15T13:09:35.161Z,83.04
2022-11-15T13:12:28.418Z,82.90
2022-11-15T13:15:01.519Z,83.53
2022-11-15T13:17:41.039Z,84.50
2022-11-15T13:20:24.352Z,84.51
2022-11-15T13:23:03.344Z,84.74
2022-11-15T13:25:49.008Z,85.54
2022-11-15T13:28:18.597Z,85.51
2022-11-15T13:30:48.278Z,86.43
2022-11-15T13:33:36.485Z,87.13
2022-11-15T13:36:17.752Z,87.45
2022-11-15T13:39:00.518Z,88.89
2022-11-15T13:41:37.241Z,88.59
2022-11-15T13:44:28.546Z,88.35
2022-11-15T13:47:16.602Z,88.77
2022-11-15T13:49:46.439Z,88.48
2022-11-15T13:52:18.048Z,88.56
2022-11-15T13:55:16.585Z,87.99
2022-11-15T13:57:50.135Z,88.09
2022-11-15T14:00:42.662Z,88.24
2022-11-15T14:03:30.948Z,88.70
2022-11-15T14:06:16.965Z,89.32
2022-11-15T14:09:10.880Z,88.77
2022-11-15T14:11:56.232Z,89.33
2022-11-15T14:14:28.752Z,89.76
2022-11-15T14:17:01.704Z,90.90
2022-11-15T14:19:32.820Z,90.11
2022-11-15T14:22:31.997Z,89.85
2022-11-15T14:25:20.126Z,91.42
2022-11-15T14:28:16.846Z,92.63
2022-11-15T14:30:51.027Z,93.51
2022-11-15T14:33:36.031Z,94.23
2022-11-15T14:36:16.428Z,95.27
2022-11-15T14:38:47.970Z,95.61
2022-11-15T14:41:25.505Z,95.82
2022-11-15T14:43:55.479Z,96.09
2022-11-15T14:46:25.365Z,96.63
2022-11-15T14:48:55.113Z,97.27
2022-11-15T14:51:25.252Z,97.98
2022-11-15T14:53:56.357Z,98.33
2022-11-15T14:56:26.092Z,97.61
2022-11-15T14:58:56.358Z,96.93
2022-11-15T15:01:27.820Z,97.28
2022-11-15T15:03:59.384Z,98.71
2022-11-15T15:06:30.095Z,99.80
2022-11-15T15:08:59.852Z,100.00
2022-11-15T15:11:32.554Z,100.00
2022-11-15T15:14:02.455Z,100.00
2022-11-15T15:16:32.266Z,100.00
2022-11-15T15:19:02.097Z,100.00
2022-11-15T15:21:36.763Z,100.00
2022-11-15T15:24:06.666Z,100.00
2022-11-15T15:26:37.440Z,100.00
2022-11-15T15:29:06.296Z,100.00
2022-11-15T15:31:34.631Z,100.00
2022-11-15T15:34:04.146Z,100.00
2022-11-15T15:36:33.794Z,100.00
2022-11-15T15:39:04.223Z,100.00
2022-11-15T15:41:33.981Z,100.00
2022-11-15T15:44:03.731Z,100.00
2022-11-15T15:46:35.425Z,100.00
2022-11-15T15:49:05.263Z,100.00
2022-11-15T15:51:35.270Z,100.00
2022-11-15T15:54:05.101Z,100.00
2022-11-15T15:56:34.988Z,100.00
2022-11-15T15:59:04.783Z,100.00
2022-11-15T16:01:34.610Z,100.00
2022-11-15T16:04:04.396Z,100.00
2022-11-15T16:06:42.246Z,100.00
2022-11-15T16:09:17.092Z,100.00
2022-11-15T16:11:48.204Z,100.00
2022-11-15T16:14:18.044Z,100.00
2022-11-15T16:16:47.822Z,100.00
2022-11-15T16:19:17.709Z,100.00
2022-11-15T16:21:47.596Z,100.00
2022-11-15T16:24:18.061Z,100.00
2022-11-15T16:26:50.516Z,100.00
2022-11-15T16:29:20.253Z,100.00
2022-11-15T16:31:50.065Z,100.00
2022-11-15T16:34:19.863Z,100.00
2022-11-15T16:36:56.844Z,100.00
2022-11-15T16:39:24.525Z,100.00
2022-11-15T16:41:53.200Z,100.00
2022-11-15T16:44:24.814Z,100.00
2022-11-15T16:46:54.630Z,100.00
2022-11-15T16:49:24.513Z,100.00
2022-11-15T16:51:54.295Z,100.00
2022-11-15T16:54:24.099Z,100.00
2022-11-15T16:56:52.539Z,100.00
2022-11-15T16:59:21.251Z,100.00
2022-11-15T17:01:51.971Z,100.00
2022-11-15T17:04:22.804Z,100.00
2022-11-15T17:06:53.382Z,100.00
2022-11-15T17:09:24.849Z,100.00
2022-11-15T17:11:54.170Z,100.00
2022-11-15T17:14:23.581Z,100.00
2022-11-15T17:16:54.711Z,100.00
2022-11-15T17:19:23.617Z,100.00
2022-11-15T17:21:54.254Z,100.00
2022-11-15T17:24:24.223Z,100.00
2022-11-15T17:26:53.506Z,100.00
2022-11-15T17:29:23.265Z,100.00
2022-11-15T17:31:53.193Z,100.00
2022-11-15T17:34:22.987Z,100.00
2022-11-15T17:36:52.899Z,100.00
2022-11-15T17:39:23.874Z,100.00
2022-11-15T17:41:53.764Z,100.00
2022-11-15T17:44:23.686Z,100.00
2022-11-15T17:46:53.505Z,100.00
2022-11-15T17:49:23.625Z,100.00
2022-11-15T17:51:54.012Z,100.00
2022-11-15T17:54:23.742Z,100.00
2022-11-15T17:57:53.487Z,100.00
2022-11-15T18:00:23.619Z,100.00
2022-11-15T18:02:52.979Z,100.00
2022-11-15T18:05:22.730Z,100.00
2022-11-15T18:07:50.669Z,100.00
2022-11-15T18:10:20.254Z,100.00
2022-11-15T18:12:49.999Z,100.00
2022-11-15T18:15:21.451Z,100.00
2022-11-15T18:17:50.490Z,100.00
2022-11-15T18:20:21.226Z,100.00
2022-11-15T18:22:54.543Z,100.00
2022-11-15T18:25:22.519Z,100.00
2022-11-15T18:27:55.302Z,100.00
2022-11-15T18:30:24.504Z,100.00
2022-11-15T18:32:55.268Z,100.00
2022-11-15T18:35:25.166Z,100.00
2022-11-15T18:37:56.087Z,100.00
2022-11-15T18:40:25.185Z,100.00
2022-11-15T18:42:55.116Z,100.00
2022-11-15T18:45:25.283Z,100.00
2022-11-15T18:47:55.022Z,100.00
2022-11-15T18:50:26.791Z,100.00
2022-11-15T18:52:55.171Z,100.00
2022-11-15T18:55:24.963Z,100.00
2022-11-15T18:57:55.010Z,100.00
2022-11-15T19:00:24.984Z,100.00
2022-11-15T19:02:55.065Z,100.00
2022-11-15T19:05:24.848Z,100.00
2022-11-15T19:07:54.740Z,100.00
2022-11-15T19:10:23.410Z,100.00
2022-11-15T19:12:51.935Z,100.00
2022-11-15T19:15:20.637Z,100.00
2022-11-15T19:17:48.887Z,100.00
2022-11-15T19:20:17.396Z,100.00
2022-11-15T19:22:45.883Z,100.00
2022-11-15T19:25:14.824Z,100.00
2022-11-15T19:27:42.677Z,100.00
2022-11-15T19:30:11.942Z,100.00
2022-11-15T19:32:39.943Z,100.00
2022-11-15T19:35:08.709Z,100.00
2022-11-15T19:37:36.470Z,100.00
2022-11-15T19:40:08.720Z,100.00
2022-11-15T19:42:36.058Z,100.00
2022-11-15T19:45:05.362Z,100.00
2022-11-15T19:47:32.956Z,100.00
2022-11-15T19:50:01.299Z,100.00
2022-11-15T19:52:30.071Z,100.00
2022-11-15T19:54:58.562Z,100.00
2022-11-15T19:57:27.067Z,100.00
2022-11-15T19:59:55.397Z,100.00
2022-11-15T20:02:23.952Z,100.00
2022-11-15T20:04:52.364Z,100.00
2022-11-15T20:07:20.717Z,100.00
2022-11-15T20:09:49.183Z,100.00
2022-11-15T20:12:17.592Z,100.00
2022-11-15T20:14:46.601Z,100.00
2022-11-15T20:17:14.285Z,100.00
2022-11-15T20:19:43.560Z,100.00
2022-11-15T20:22:11.479Z,100.00
2022-11-15T20:24:39.792Z,100.00
2022-11-15T20:27:08.594Z,100.00
2022-11-15T20:29:37.048Z,100.00
2022-11-15T20:32:07.813Z,100.00
2022-11-15T20:34:36.355Z,100.00
2022-11-15T20:37:04.785Z,100.00
2022-11-15T20:39:34.788Z,100.00
2022-11-15T20:42:01.683Z,100.00
2022-11-15T20:44:30.063Z,100.00
2022-11-15T20:46:58.405Z,100.00
2022-11-15T20:49:26.841Z,100.00
2022-11-15T20:51:55.318Z,100.00
2022-11-15T20:54:23.710Z,100.00
2022-11-15T20:56:52.059Z,100.00
2022-11-15T20:59:20.505Z,100.00
2022-11-15T21:01:49.035Z,100.00
2022-11-15T21:04:17.413Z,100.00
2022-11-15T21:06:48.724Z,100.00
2022-11-15T21:09:37.633Z,100.00
2022-11-15T21:12:19.065Z,100.00
2022-11-15T21:14:48.574Z,100.00
2022-11-15T21:17:17.013Z,100.00
2022-11-15T21:19:47.225Z,100.00
2022-11-15T21:22:16.512Z,100.00
2022-11-15T21:24:47.174Z,100.00
2022-11-15T21:27:17.033Z,100.00
2022-11-15T21:29:49.575Z,100.00
2022-11-15T21:32:20.147Z,100.00
2022-11-15T21:34:49.781Z,100.00
2022-11-15T21:37:19.643Z,100.00
2022-11-15T21:39:49.412Z,100.00
2022-11-15T21:42:19.624Z,100.00
2022-11-15T21:44:49.375Z,100.00
2022-11-15T21:47:19.905Z,100.00
2022-11-15T21:49:49.385Z,100.00
2022-11-15T21:52:19.247Z,100.00
2022-11-15T21:54:47.662Z,100.00
2022-11-15T21:57:16.169Z,100.00
2022-11-15T22:00:03.171Z,100.00
2022-11-15T22:02:30.777Z,100.00
2022-11-15T22:04:59.087Z,100.00
2022-11-15T22:07:27.547Z,100.00
2022-11-15T22:09:55.852Z,100.00
2022-11-15T22:12:29.399Z,100.00
2022-11-15T22:14:58.716Z,100.00
2022-11-15T22:17:47.136Z,100.00
2022-11-15T22:20:45.536Z,100.00
2022-11-15T22:23:06.021Z,100.00
2022-11-15T22:25:35.950Z,100.00
2022-11-15T22:28:05.823Z,100.00
2022-11-15T22:30:35.770Z,100.00
2022-11-15T22:33:05.555Z,100.00
2022-11-15T22:35:36.320Z,100.00
2022-11-15T22:38:07.195Z,100.00
2022-11-15T22:40:35.754Z,100.00
2022-11-15T22:43:04.114Z,100.00
2022-11-15T22:45:32.871Z,100.00
2022-11-15T22:48:00.418Z,100.00
2022-11-15T22:50:28.466Z,100.00
2022-11-15T22:52:56.867Z,100.00
2022-11-15T22:55:25.926Z,100.00
2022-11-15T22:57:53.965Z,100.00
2022-11-15T23:00:23.860Z,100.00
2022-11-15T23:02:54.522Z,100.00
2022-11-15T23:05:24.452Z,100.00
2022-11-15T23:07:54.314Z,100.00
2022-11-15T23:10:42.843Z,100.00
2022-11-15T23:13:17.495Z,100.00
2022-11-15T23:16:10.256Z,100.00
2022-11-15T23:18:43.377Z,100.00
2022-11-15T23:21:37.560Z,100.00
2022-11-15T23:24:11.695Z,100.00
2022-11-15T23:26:40.773Z,100.00
2022-11-15T23:29:14.806Z,100.00
2022-11-15T23:32:03.545Z,100.00
2022-11-15T23:34:39.353Z,100.00
2022-11-15T23:37:12.725Z,100.00
2022-11-15T23:39:42.690Z,100.00
2022-11-15T23:42:19.936Z,100.00
2022-11-15T23:44:51.094Z,100.00
2022-11-15T23:47:19.544Z,100.00
2022-11-15T23:49:47.391Z,100.00
2022-11-15T23:52:16.921Z,100.00
2022-11-15T23:54:46.716Z,100.00
2022-11-15T23:57:15.346Z,100.00
2022-11-15T23:59:43.909Z,100.00
